sensor_id;sensor_type;location;lat;lon;timestamp;temperature;humidity
53800;DHT22;39708;53.210;6.948;2022-07-03T00:01:24;16.00;99.90
53800;DHT22;39708;53.210;6.948;2022-07-03T00:03:50;16.10;99.90
53800;DHT22;39708;53.210;6.948;2022-07-03T00:06:16;16.00;99.90
53800;DHT22;39708;53.210;6.948;2022-07-03T00:08:42;15.90;99.90
53800;DHT22;39708;53.210;6.948;2022-07-03T00:11:08;15.90;99.90
53800;DHT22;39708;53.210;6.948;2022-07-03T00:13:34;15.70;99.90
53800;DHT22;39708;53.210;6.948;2022-07-03T00:15:59;15.70;99.90
53800;DHT22;39708;53.210;6.948;2022-07-03T00:18:25;15.70;99.90
53800;DHT22;39708;53.210;6.948;2022-07-03T00:21:04;15.80;99.90
53800;DHT22;39708;53.210;6.948;2022-07-03T00:26:19;15.90;99.90
53800;DHT22;39708;53.210;6.948;2022-07-03T00:28:45;15.90;99.90
53800;DHT22;39708;53.210;6.948;2022-07-03T00:31:11;15.90;99.90
53800;DHT22;39708;53.210;6.948;2022-07-03T00:33:38;15.90;99.90
53800;DHT22;39708;53.210;6.948;2022-07-03T00:36:04;15.90;99.90
53800;DHT22;39708;53.210;6.948;2022-07-03T00:38:30;15.90;99.90
53800;DHT22;39708;53.210;6.948;2022-07-03T00:40:55;15.90;99.90
53800;DHT22;39708;53.210;6.948;2022-07-03T00:43:21;16.00;99.90
53800;DHT22;39708;53.210;6.948;2022-07-03T00:45:50;16.00;99.90
53800;DHT22;39708;53.210;6.948;2022-07-03T00:48:18;16.00;99.90
53800;DHT22;39708;53.210;6.948;2022-07-03T00:50:49;15.90;99.90
53800;DHT22;39708;53.210;6.948;2022-07-03T00:53:27;15.80;99.90
53800;DHT22;39708;53.210;6.948;2022-07-03T00:55:55;15.80;99.90
53800;DHT22;39708;53.210;6.948;2022-07-03T00:58:21;15.80;99.90
53800;DHT22;39708;53.210;6.948;2022-07-03T01:00:51;15.80;99.90
53800;DHT22;39708;53.210;6.948;2022-07-03T01:03:19;15.70;99.90
53800;DHT22;39708;53.210;6.948;2022-07-03T01:05:50;15.60;99.90
53800;DHT22;39708;53.210;6.948;2022-07-03T01:08:35;15.50;99.90
53800;DHT22;39708;53.210;6.948;2022-07-03T01:11:07;15.50;99.90
53800;DHT22;39708;53.210;6.948;2022-07-03T01:27:02;15.30;99.90
53800;DHT22;39708;53.210;6.948;2022-07-03T01:29:42;15.30;99.90
53800;DHT22;39708;53.210;6.948;2022-07-03T01:32:12;15.20;99.90
53800;DHT22;39708;53.210;6.948;2022-07-03T01:34:43;15.30;99.90
53800;DHT22;39708;53.210;6.948;2022-07-03T01:37:10;15.10;99.90
53800;DHT22;39708;53.210;6.948;2022-07-03T01:39:42;14.70;99.90
53800;DHT22;39708;53.210;6.948;2022-07-03T01:42:11;14.40;99.90
53800;DHT22;39708;53.210;6.948;2022-07-03T01:44:39;14.10;99.90
53800;DHT22;39708;53.210;6.948;2022-07-03T01:47:05;14.00;99.90
53800;DHT22;39708;53.210;6.948;2022-07-03T01:49:32;13.90;99.90
53800;DHT22;39708;53.210;6.948;2022-07-03T01:52:02;13.80;99.90
53800;DHT22;39708;53.210;6.948;2022-07-03T01:54:28;13.70;99.90
53800;DHT22;39708;53.210;6.948;2022-07-03T01:56:55;13.60;99.90
53800;DHT22;39708;53.210;6.948;2022-07-03T01:59:21;13.50;99.90
53800;DHT22;39708;53.210;6.948;2022-07-03T02:02:28;13.40;99.90
53800;DHT22;39708;53.210;6.948;2022-07-03T02:04:58;13.40;99.90
53800;DHT22;39708;53.210;6.948;2022-07-03T02:10:03;13.70;99.90
53800;DHT22;39708;53.210;6.948;2022-07-03T02:12:38;13.90;99.90
53800;DHT22;39708;53.210;6.948;2022-07-03T02:15:07;14.10;99.90
53800;DHT22;39708;53.210;6.948;2022-07-03T02:17:45;14.00;99.90
53800;DHT22;39708;53.210;6.948;2022-07-03T02:20:11;14.00;99.90
53800;DHT22;39708;53.210;6.948;2022-07-03T02:22:41;14.20;99.90
53800;DHT22;39708;53.210;6.948;2022-07-03T02:25:13;14.00;99.90
53800;DHT22;39708;53.210;6.948;2022-07-03T02:30:08;14.10;99.90
53800;DHT22;39708;53.210;6.948;2022-07-03T02:32:49;14.10;99.90
53800;DHT22;39708;53.210;6.948;2022-07-03T02:35:33;14.10;99.90
53800;DHT22;39708;53.210;6.948;2022-07-03T02:40:44;14.10;99.90
53800;DHT22;39708;53.210;6.948;2022-07-03T02:46:18;14.30;99.90
53800;DHT22;39708;53.210;6.948;2022-07-03T02:52:01;14.30;99.90
53800;DHT22;39708;53.210;6.948;2022-07-03T02:54:30;14.30;99.90
53800;DHT22;39708;53.210;6.948;2022-07-03T03:02:06;14.20;99.90
53800;DHT22;39708;53.210;6.948;2022-07-03T03:04:34;14.20;99.90
53800;DHT22;39708;53.210;6.948;2022-07-03T03:07:13;14.20;99.90
53800;DHT22;39708;53.210;6.948;2022-07-03T03:09:44;14.10;99.90
53800;DHT22;39708;53.210;6.948;2022-07-03T03:12:12;14.00;99.90
53800;DHT22;39708;53.210;6.948;2022-07-03T03:14:48;14.10;99.90
53800;DHT22;39708;53.210;6.948;2022-07-03T03:17:31;14.30;99.90
53800;DHT22;39708;53.210;6.948;2022-07-03T03:20:01;14.20;99.90
53800;DHT22;39708;53.210;6.948;2022-07-03T03:22:54;14.20;99.90
53800;DHT22;39708;53.210;6.948;2022-07-03T03:25:24;14.20;99.90
53800;DHT22;39708;53.210;6.948;2022-07-03T03:27:50;14.30;99.90
53800;DHT22;39708;53.210;6.948;2022-07-03T03:30:17;14.10;99.90
53800;DHT22;39708;53.210;6.948;2022-07-03T03:32:43;14.10;99.90
53800;DHT22;39708;53.210;6.948;2022-07-03T03:35:09;14.10;99.90
53800;DHT22;39708;53.210;6.948;2022-07-03T03:37:35;14.10;99.90
53800;DHT22;39708;53.210;6.948;2022-07-03T03:40:05;14.20;99.90
53800;DHT22;39708;53.210;6.948;2022-07-03T03:42:31;14.20;99.90
53800;DHT22;39708;53.210;6.948;2022-07-03T03:44:56;14.30;99.90
53800;DHT22;39708;53.210;6.948;2022-07-03T03:47:22;14.40;99.90
53800;DHT22;39708;53.210;6.948;2022-07-03T03:49:49;14.50;99.90
53800;DHT22;39708;53.210;6.948;2022-07-03T03:52:14;14.60;99.90
53800;DHT22;39708;53.210;6.948;2022-07-03T03:54:40;15.10;99.90
53800;DHT22;39708;53.210;6.948;2022-07-03T03:57:19;14.80;99.90
53800;DHT22;39708;53.210;6.948;2022-07-03T03:59:45;14.80;99.90
53800;DHT22;39708;53.210;6.948;2022-07-03T04:02:11;14.80;99.90
53800;DHT22;39708;53.210;6.948;2022-07-03T04:04:38;14.70;99.90
53800;DHT22;39708;53.210;6.948;2022-07-03T04:07:04;14.70;99.90
53800;DHT22;39708;53.210;6.948;2022-07-03T04:09:30;14.50;99.90
53800;DHT22;39708;53.210;6.948;2022-07-03T04:11:56;14.50;99.90
53800;DHT22;39708;53.210;6.948;2022-07-03T04:14:21;14.50;99.90
53800;DHT22;39708;53.210;6.948;2022-07-03T04:16:47;14.70;99.90
53800;DHT22;39708;53.210;6.948;2022-07-03T04:19:13;14.50;99.90
53800;DHT22;39708;53.210;6.948;2022-07-03T04:21:38;14.50;99.90
53800;DHT22;39708;53.210;6.948;2022-07-03T04:24:04;14.40;99.90
53800;DHT22;39708;53.210;6.948;2022-07-03T04:26:30;14.50;99.90
53800;DHT22;39708;53.210;6.948;2022-07-03T04:28:56;14.50;99.90
53800;DHT22;39708;53.210;6.948;2022-07-03T04:31:21;14.50;99.90
53800;DHT22;39708;53.210;6.948;2022-07-03T04:33:47;14.60;99.90
53800;DHT22;39708;53.210;6.948;2022-07-03T04:36:12;14.50;99.90
53800;DHT22;39708;53.210;6.948;2022-07-03T04:38:38;14.60;99.90
53800;DHT22;39708;53.210;6.948;2022-07-03T04:41:04;14.70;99.90
53800;DHT22;39708;53.210;6.948;2022-07-03T04:43:30;14.90;99.90
53800;DHT22;39708;53.210;6.948;2022-07-03T04:45:55;14.90;99.90
53800;DHT22;39708;53.210;6.948;2022-07-03T04:48:21;15.00;99.90
53800;DHT22;39708;53.210;6.948;2022-07-03T04:50:46;15.10;99.90
53800;DHT22;39708;53.210;6.948;2022-07-03T04:53:12;14.70;99.90
53800;DHT22;39708;53.210;6.948;2022-07-03T04:55:38;15.00;99.90
53800;DHT22;39708;53.210;6.948;2022-07-03T04:58:03;15.10;99.90
53800;DHT22;39708;53.210;6.948;2022-07-03T05:00:29;15.20;99.90
53800;DHT22;39708;53.210;6.948;2022-07-03T05:02:54;15.00;99.90
53800;DHT22;39708;53.210;6.948;2022-07-03T05:05:20;15.10;99.90
53800;DHT22;39708;53.210;6.948;2022-07-03T05:07:47;15.20;99.90
53800;DHT22;39708;53.210;6.948;2022-07-03T05:10:12;15.60;99.90
53800;DHT22;39708;53.210;6.948;2022-07-03T05:12:38;15.90;99.90
53800;DHT22;39708;53.210;6.948;2022-07-03T05:15:04;16.00;99.90
53800;DHT22;39708;53.210;6.948;2022-07-03T05:17:30;16.10;99.90
53800;DHT22;39708;53.210;6.948;2022-07-03T05:19:55;16.30;99.90
53800;DHT22;39708;53.210;6.948;2022-07-03T05:22:39;16.40;99.90
53800;DHT22;39708;53.210;6.948;2022-07-03T05:25:05;16.50;99.90
53800;DHT22;39708;53.210;6.948;2022-07-03T05:27:31;16.70;99.90
53800;DHT22;39708;53.210;6.948;2022-07-03T05:30:00;16.90;99.90
53800;DHT22;39708;53.210;6.948;2022-07-03T05:32:25;17.10;99.90
53800;DHT22;39708;53.210;6.948;2022-07-03T05:34:51;17.10;99.90
53800;DHT22;39708;53.210;6.948;2022-07-03T05:37:16;17.10;99.90
53800;DHT22;39708;53.210;6.948;2022-07-03T05:39:42;17.10;99.90
53800;DHT22;39708;53.210;6.948;2022-07-03T05:42:08;17.10;99.90
53800;DHT22;39708;53.210;6.948;2022-07-03T05:44:33;17.20;99.90
53800;DHT22;39708;53.210;6.948;2022-07-03T05:46:59;17.20;99.90
53800;DHT22;39708;53.210;6.948;2022-07-03T05:49:24;17.20;99.90
53800;DHT22;39708;53.210;6.948;2022-07-03T05:51:50;17.30;99.90
53800;DHT22;39708;53.210;6.948;2022-07-03T05:54:15;17.40;99.90
53800;DHT22;39708;53.210;6.948;2022-07-03T05:56:41;17.40;99.90
53800;DHT22;39708;53.210;6.948;2022-07-03T05:59:07;17.60;99.90
53800;DHT22;39708;53.210;6.948;2022-07-03T06:01:32;17.80;99.90
53800;DHT22;39708;53.210;6.948;2022-07-03T06:03:58;17.80;99.90
53800;DHT22;39708;53.210;6.948;2022-07-03T06:06:24;17.90;99.90
53800;DHT22;39708;53.210;6.948;2022-07-03T06:08:49;18.00;99.90
53800;DHT22;39708;53.210;6.948;2022-07-03T06:11:15;18.00;99.90
53800;DHT22;39708;53.210;6.948;2022-07-03T06:13:41;18.00;99.90
53800;DHT22;39708;53.210;6.948;2022-07-03T06:16:06;18.10;99.90
53800;DHT22;39708;53.210;6.948;2022-07-03T06:18:32;18.10;99.90
53800;DHT22;39708;53.210;6.948;2022-07-03T06:20:58;18.10;99.90
53800;DHT22;39708;53.210;6.948;2022-07-03T06:23:23;18.20;99.90
53800;DHT22;39708;53.210;6.948;2022-07-03T06:25:49;18.30;99.90
53800;DHT22;39708;53.210;6.948;2022-07-03T06:28:15;18.40;99.90
53800;DHT22;39708;53.210;6.948;2022-07-03T06:30:40;18.40;99.90
53800;DHT22;39708;53.210;6.948;2022-07-03T06:33:06;18.50;99.90
53800;DHT22;39708;53.210;6.948;2022-07-03T06:35:32;18.60;99.90
53800;DHT22;39708;53.210;6.948;2022-07-03T06:38:04;18.60;99.90
53800;DHT22;39708;53.210;6.948;2022-07-03T06:40:30;18.70;99.90
53800;DHT22;39708;53.210;6.948;2022-07-03T06:42:56;18.80;99.90
53800;DHT22;39708;53.210;6.948;2022-07-03T06:45:21;18.90;99.90
53800;DHT22;39708;53.210;6.948;2022-07-03T06:47:47;18.90;99.90
53800;DHT22;39708;53.210;6.948;2022-07-03T06:50:13;18.90;99.90
53800;DHT22;39708;53.210;6.948;2022-07-03T06:52:38;19.00;99.90
53800;DHT22;39708;53.210;6.948;2022-07-03T06:55:05;19.00;99.90
53800;DHT22;39708;53.210;6.948;2022-07-03T06:57:31;19.00;99.90
53800;DHT22;39708;53.210;6.948;2022-07-03T06:59:56;19.20;99.90
53800;DHT22;39708;53.210;6.948;2022-07-03T07:02:22;19.30;99.90
53800;DHT22;39708;53.210;6.948;2022-07-03T07:04:48;19.60;99.90
53800;DHT22;39708;53.210;6.948;2022-07-03T07:07:14;19.90;99.90
53800;DHT22;39708;53.210;6.948;2022-07-03T07:09:39;20.00;99.90
53800;DHT22;39708;53.210;6.948;2022-07-03T07:12:05;20.10;99.90
53800;DHT22;39708;53.210;6.948;2022-07-03T07:14:31;20.20;99.90
53800;DHT22;39708;53.210;6.948;2022-07-03T07:16:57;20.30;99.90
53800;DHT22;39708;53.210;6.948;2022-07-03T07:19:22;20.40;99.90
53800;DHT22;39708;53.210;6.948;2022-07-03T07:21:48;20.50;99.90
53800;DHT22;39708;53.210;6.948;2022-07-03T07:24:14;20.50;99.90
53800;DHT22;39708;53.210;6.948;2022-07-03T07:26:40;20.50;99.90
53800;DHT22;39708;53.210;6.948;2022-07-03T07:29:06;20.60;99.90
53800;DHT22;39708;53.210;6.948;2022-07-03T07:31:32;20.50;99.90
53800;DHT22;39708;53.210;6.948;2022-07-03T07:33:58;20.50;99.90
53800;DHT22;39708;53.210;6.948;2022-07-03T07:36:23;20.50;99.90
53800;DHT22;39708;53.210;6.948;2022-07-03T07:38:49;20.50;99.90
53800;DHT22;39708;53.210;6.948;2022-07-03T07:41:15;20.50;99.90
53800;DHT22;39708;53.210;6.948;2022-07-03T07:43:40;20.40;99.90
53800;DHT22;39708;53.210;6.948;2022-07-03T07:46:06;20.40;99.90
53800;DHT22;39708;53.210;6.948;2022-07-03T07:48:34;20.40;99.90
53800;DHT22;39708;53.210;6.948;2022-07-03T07:51:00;20.50;99.90
53800;DHT22;39708;53.210;6.948;2022-07-03T07:53:26;20.60;99.90
53800;DHT22;39708;53.210;6.948;2022-07-03T07:55:52;20.70;99.90
53800;DHT22;39708;53.210;6.948;2022-07-03T07:58:18;20.80;99.90
53800;DHT22;39708;53.210;6.948;2022-07-03T08:00:44;20.90;99.90
53800;DHT22;39708;53.210;6.948;2022-07-03T08:03:30;21.00;99.90
53800;DHT22;39708;53.210;6.948;2022-07-03T08:06:14;21.10;99.90
53800;DHT22;39708;53.210;6.948;2022-07-03T08:08:40;21.00;99.90
53800;DHT22;39708;53.210;6.948;2022-07-03T08:11:05;20.90;99.90
53800;DHT22;39708;53.210;6.948;2022-07-03T08:13:31;20.40;99.90
53800;DHT22;39708;53.210;6.948;2022-07-03T08:15:57;20.80;99.90
53800;DHT22;39708;53.210;6.948;2022-07-03T08:18:22;20.80;99.90
53800;DHT22;39708;53.210;6.948;2022-07-03T08:20:48;20.80;99.90
53800;DHT22;39708;53.210;6.948;2022-07-03T08:23:14;20.80;99.90
53800;DHT22;39708;53.210;6.948;2022-07-03T08:25:40;20.80;99.90
53800;DHT22;39708;53.210;6.948;2022-07-03T08:28:05;20.80;99.90
53800;DHT22;39708;53.210;6.948;2022-07-03T08:30:31;20.90;99.90
53800;DHT22;39708;53.210;6.948;2022-07-03T08:32:58;21.00;99.90
53800;DHT22;39708;53.210;6.948;2022-07-03T08:35:24;21.00;99.90
53800;DHT22;39708;53.210;6.948;2022-07-03T08:37:50;21.10;99.90
53800;DHT22;39708;53.210;6.948;2022-07-03T08:40:17;21.10;99.90
53800;DHT22;39708;53.210;6.948;2022-07-03T08:43:01;21.30;99.90
53800;DHT22;39708;53.210;6.948;2022-07-03T08:45:30;21.30;99.90
53800;DHT22;39708;53.210;6.948;2022-07-03T08:47:58;21.40;99.90
53800;DHT22;39708;53.210;6.948;2022-07-03T08:50:23;21.50;99.90
53800;DHT22;39708;53.210;6.948;2022-07-03T08:52:50;22.00;99.90
53800;DHT22;39708;53.210;6.948;2022-07-03T08:55:17;22.40;99.90
53800;DHT22;39708;53.210;6.948;2022-07-03T08:57:44;22.40;99.90
53800;DHT22;39708;53.210;6.948;2022-07-03T09:00:17;22.20;99.90
53800;DHT22;39708;53.210;6.948;2022-07-03T09:02:45;22.00;99.90
53800;DHT22;39708;53.210;6.948;2022-07-03T09:05:11;21.90;99.90
53800;DHT22;39708;53.210;6.948;2022-07-03T09:07:40;21.80;99.90
53800;DHT22;39708;53.210;6.948;2022-07-03T09:10:09;21.90;99.90
53800;DHT22;39708;53.210;6.948;2022-07-03T09:12:35;22.10;99.90
53800;DHT22;39708;53.210;6.948;2022-07-03T09:15:03;22.30;99.90
53800;DHT22;39708;53.210;6.948;2022-07-03T09:17:29;22.50;99.90
53800;DHT22;39708;53.210;6.948;2022-07-03T09:19:58;22.50;99.90
53800;DHT22;39708;53.210;6.948;2022-07-03T09:22:26;22.70;99.90
53800;DHT22;39708;53.210;6.948;2022-07-03T09:24:55;22.70;99.90
53800;DHT22;39708;53.210;6.948;2022-07-03T09:27:28;22.60;99.90
53800;DHT22;39708;53.210;6.948;2022-07-03T09:30:01;22.40;99.90
53800;DHT22;39708;53.210;6.948;2022-07-03T09:32:42;22.20;99.90
53800;DHT22;39708;53.210;6.948;2022-07-03T09:35:25;22.00;99.90
53800;DHT22;39708;53.210;6.948;2022-07-03T09:37:55;21.80;99.90
53800;DHT22;39708;53.210;6.948;2022-07-03T09:40:23;21.70;99.90
53800;DHT22;39708;53.210;6.948;2022-07-03T09:43:06;21.90;99.90
53800;DHT22;39708;53.210;6.948;2022-07-03T09:48:39;22.70;99.90
53800;DHT22;39708;53.210;6.948;2022-07-03T09:51:16;22.80;99.90
53800;DHT22;39708;53.210;6.948;2022-07-03T09:53:53;23.20;99.90
53800;DHT22;39708;53.210;6.948;2022-07-03T09:56:20;23.10;99.90
53800;DHT22;39708;53.210;6.948;2022-07-03T09:59:18;23.40;99.90
53800;DHT22;39708;53.210;6.948;2022-07-03T10:01:45;23.70;99.90
53800;DHT22;39708;53.210;6.948;2022-07-03T10:06:51;23.90;99.90
53800;DHT22;39708;53.210;6.948;2022-07-03T10:09:19;24.00;99.90
53800;DHT22;39708;53.210;6.948;2022-07-03T10:11:46;24.10;99.90
53800;DHT22;39708;53.210;6.948;2022-07-03T10:14:14;24.20;99.90
53800;DHT22;39708;53.210;6.948;2022-07-03T10:16:41;24.40;99.90
53800;DHT22;39708;53.210;6.948;2022-07-03T10:19:12;24.40;99.90
53800;DHT22;39708;53.210;6.948;2022-07-03T10:21:39;24.50;99.90
53800;DHT22;39708;53.210;6.948;2022-07-03T10:24:07;24.60;99.90
53800;DHT22;39708;53.210;6.948;2022-07-03T10:26:33;24.50;99.70
53800;DHT22;39708;53.210;6.948;2022-07-03T10:29:00;24.50;99.90
53800;DHT22;39708;53.210;6.948;2022-07-03T10:31:28;24.50;99.90
53800;DHT22;39708;53.210;6.948;2022-07-03T10:33:54;24.70;99.90
53800;DHT22;39708;53.210;6.948;2022-07-03T10:36:22;24.50;99.90
53800;DHT22;39708;53.210;6.948;2022-07-03T10:38:49;24.20;99.90
53800;DHT22;39708;53.210;6.948;2022-07-03T10:41:34;24.40;98.20
53800;DHT22;39708;53.210;6.948;2022-07-03T10:44:20;24.20;99.30
53800;DHT22;39708;53.210;6.948;2022-07-03T10:47:04;24.00;97.10
53800;DHT22;39708;53.210;6.948;2022-07-03T10:49:30;24.00;99.90
53800;DHT22;39708;53.210;6.948;2022-07-03T10:52:03;23.80;96.00
53800;DHT22;39708;53.210;6.948;2022-07-03T10:54:33;23.80;97.60
53800;DHT22;39708;53.210;6.948;2022-07-03T10:57:09;23.60;99.90
53800;DHT22;39708;53.210;6.948;2022-07-03T11:05:20;22.70;99.90
53800;DHT22;39708;53.210;6.948;2022-07-03T11:13:16;22.50;99.90
53800;DHT22;39708;53.210;6.948;2022-07-03T11:15:53;22.40;99.90
53800;DHT22;39708;53.210;6.948;2022-07-03T11:18:31;22.50;99.90
53800;DHT22;39708;53.210;6.948;2022-07-03T11:23:33;22.40;99.90
53800;DHT22;39708;53.210;6.948;2022-07-03T11:26:18;22.70;99.90
53800;DHT22;39708;53.210;6.948;2022-07-03T11:38:47;24.20;99.90
53800;DHT22;39708;53.210;6.948;2022-07-03T11:41:15;24.30;99.90
53800;DHT22;39708;53.210;6.948;2022-07-03T11:43:58;24.20;95.10
53800;DHT22;39708;53.210;6.948;2022-07-03T11:46:25;24.10;99.90
53800;DHT22;39708;53.210;6.948;2022-07-03T11:49:12;24.20;98.60
53800;DHT22;39708;53.210;6.948;2022-07-03T11:51:40;24.20;97.00
53800;DHT22;39708;53.210;6.948;2022-07-03T11:54:06;24.30;99.90
53800;DHT22;39708;53.210;6.948;2022-07-03T11:56:33;24.40;96.30
53800;DHT22;39708;53.210;6.948;2022-07-03T11:59:03;24.30;95.60
53800;DHT22;39708;53.210;6.948;2022-07-03T12:01:30;24.20;97.80
53800;DHT22;39708;53.210;6.948;2022-07-03T12:04:06;24.40;96.20
53800;DHT22;39708;53.210;6.948;2022-07-03T12:06:45;24.60;97.10
53800;DHT22;39708;53.210;6.948;2022-07-03T12:09:13;24.60;99.00
53800;DHT22;39708;53.210;6.948;2022-07-03T12:11:39;24.60;94.50
53800;DHT22;39708;53.210;6.948;2022-07-03T12:14:05;24.60;97.50
53800;DHT22;39708;53.210;6.948;2022-07-03T12:16:35;24.70;99.90
53800;DHT22;39708;53.210;6.948;2022-07-03T12:19:06;24.80;99.90
53800;DHT22;39708;53.210;6.948;2022-07-03T12:21:38;24.70;99.00
53800;DHT22;39708;53.210;6.948;2022-07-03T12:24:12;24.60;99.90
53800;DHT22;39708;53.210;6.948;2022-07-03T12:26:39;24.60;97.30
53800;DHT22;39708;53.210;6.948;2022-07-03T12:29:14;24.50;99.90
53800;DHT22;39708;53.210;6.948;2022-07-03T12:31:41;24.40;95.00
53800;DHT22;39708;53.210;6.948;2022-07-03T12:34:07;24.40;99.90
53800;DHT22;39708;53.210;6.948;2022-07-03T12:36:34;24.30;99.00
53800;DHT22;39708;53.210;6.948;2022-07-03T12:39:06;24.40;99.90
53800;DHT22;39708;53.210;6.948;2022-07-03T12:41:34;24.60;97.40
53800;DHT22;39708;53.210;6.948;2022-07-03T12:44:00;24.70;97.70
53800;DHT22;39708;53.210;6.948;2022-07-03T12:46:33;24.30;99.90
53800;DHT22;39708;53.210;6.948;2022-07-03T12:49:08;24.10;99.90
53800;DHT22;39708;53.210;6.948;2022-07-03T12:54:28;23.90;99.90
53800;DHT22;39708;53.210;6.948;2022-07-03T12:57:09;23.60;99.90
53800;DHT22;39708;53.210;6.948;2022-07-03T13:00:13;23.60;99.90
53800;DHT22;39708;53.210;6.948;2022-07-03T13:02:44;23.50;99.90
53800;DHT22;39708;53.210;6.948;2022-07-03T13:05:18;23.00;99.90
53800;DHT22;39708;53.210;6.948;2022-07-03T13:07:46;23.20;99.90
53800;DHT22;39708;53.210;6.948;2022-07-03T13:10:16;23.30;99.90
53800;DHT22;39708;53.210;6.948;2022-07-03T13:12:55;23.70;99.90
53800;DHT22;39708;53.210;6.948;2022-07-03T13:15:29;23.60;99.90
53800;DHT22;39708;53.210;6.948;2022-07-03T13:20:25;23.30;99.90
53800;DHT22;39708;53.210;6.948;2022-07-03T13:22:51;23.30;99.90
53800;DHT22;39708;53.210;6.948;2022-07-03T13:25:18;23.40;99.90
53800;DHT22;39708;53.210;6.948;2022-07-03T13:27:43;23.30;99.90
53800;DHT22;39708;53.210;6.948;2022-07-03T13:30:11;23.20;99.90
53800;DHT22;39708;53.210;6.948;2022-07-03T13:32:37;23.10;99.90
53800;DHT22;39708;53.210;6.948;2022-07-03T13:35:04;23.10;99.90
53800;DHT22;39708;53.210;6.948;2022-07-03T13:37:29;22.90;99.90
53800;DHT22;39708;53.210;6.948;2022-07-03T13:39:55;23.00;99.90
53800;DHT22;39708;53.210;6.948;2022-07-03T13:42:21;22.80;99.90
53800;DHT22;39708;53.210;6.948;2022-07-03T13:44:46;22.60;99.90
53800;DHT22;39708;53.210;6.948;2022-07-03T13:47:12;22.60;99.90
53800;DHT22;39708;53.210;6.948;2022-07-03T13:49:38;22.40;99.90
53800;DHT22;39708;53.210;6.948;2022-07-03T13:52:04;22.20;99.90
53800;DHT22;39708;53.210;6.948;2022-07-03T13:54:30;22.10;99.90
53800;DHT22;39708;53.210;6.948;2022-07-03T13:56:55;22.30;99.90
53800;DHT22;39708;53.210;6.948;2022-07-03T13:59:21;22.30;99.90
53800;DHT22;39708;53.210;6.948;2022-07-03T14:01:47;22.10;99.90
53800;DHT22;39708;53.210;6.948;2022-07-03T14:04:13;21.90;99.90
53800;DHT22;39708;53.210;6.948;2022-07-03T14:06:39;21.90;99.90
53800;DHT22;39708;53.210;6.948;2022-07-03T14:09:04;21.90;99.90
53800;DHT22;39708;53.210;6.948;2022-07-03T14:11:30;21.90;99.90
53800;DHT22;39708;53.210;6.948;2022-07-03T14:13:56;21.90;99.90
53800;DHT22;39708;53.210;6.948;2022-07-03T14:16:22;21.80;99.90
53800;DHT22;39708;53.210;6.948;2022-07-03T14:18:48;21.60;99.90
53800;DHT22;39708;53.210;6.948;2022-07-03T14:21:14;21.60;99.90
53800;DHT22;39708;53.210;6.948;2022-07-03T14:23:39;21.50;99.90
53800;DHT22;39708;53.210;6.948;2022-07-03T14:26:05;21.40;99.90
53800;DHT22;39708;53.210;6.948;2022-07-03T14:28:31;21.30;99.90
53800;DHT22;39708;53.210;6.948;2022-07-03T14:31:15;21.10;99.90
53800;DHT22;39708;53.210;6.948;2022-07-03T14:33:51;21.10;99.90
53800;DHT22;39708;53.210;6.948;2022-07-03T14:36:18;20.90;99.90
53800;DHT22;39708;53.210;6.948;2022-07-03T14:38:44;20.60;99.90
53800;DHT22;39708;53.210;6.948;2022-07-03T14:41:10;20.40;99.90
53800;DHT22;39708;53.210;6.948;2022-07-03T14:43:36;20.10;99.90
53800;DHT22;39708;53.210;6.948;2022-07-03T14:46:01;19.90;99.90
53800;DHT22;39708;53.210;6.948;2022-07-03T14:48:27;19.60;99.90
53800;DHT22;39708;53.210;6.948;2022-07-03T14:50:53;19.60;99.90
53800;DHT22;39708;53.210;6.948;2022-07-03T14:53:19;18.90;99.90
53800;DHT22;39708;53.210;6.948;2022-07-03T14:55:46;17.70;99.90
53800;DHT22;39708;53.210;6.948;2022-07-03T14:58:19;17.20;99.90
53800;DHT22;39708;53.210;6.948;2022-07-03T15:00:57;16.70;99.90
53800;DHT22;39708;53.210;6.948;2022-07-03T15:03:32;16.60;99.90
53800;DHT22;39708;53.210;6.948;2022-07-03T15:06:07;16.50;99.90
53800;DHT22;39708;53.210;6.948;2022-07-03T15:11:52;16.60;99.90
53800;DHT22;39708;53.210;6.948;2022-07-03T15:14:39;16.80;99.90
53800;DHT22;39708;53.210;6.948;2022-07-03T15:17:07;16.70;99.90
53800;DHT22;39708;53.210;6.948;2022-07-03T15:19:35;16.70;99.90
53800;DHT22;39708;53.210;6.948;2022-07-03T15:22:03;16.70;99.90
53800;DHT22;39708;53.210;6.948;2022-07-03T15:24:30;16.70;99.90
53800;DHT22;39708;53.210;6.948;2022-07-03T15:26:56;16.70;99.90
53800;DHT22;39708;53.210;6.948;2022-07-03T15:29:23;16.80;99.90
53800;DHT22;39708;53.210;6.948;2022-07-03T15:31:49;16.60;99.90
53800;DHT22;39708;53.210;6.948;2022-07-03T15:34:15;16.70;99.90
53800;DHT22;39708;53.210;6.948;2022-07-03T15:36:51;16.70;99.90
53800;DHT22;39708;53.210;6.948;2022-07-03T15:39:30;16.90;99.90
53800;DHT22;39708;53.210;6.948;2022-07-03T15:42:13;17.20;99.90
53800;DHT22;39708;53.210;6.948;2022-07-03T15:45:11;17.60;99.90
53800;DHT22;39708;53.210;6.948;2022-07-03T15:47:59;17.80;99.90
53800;DHT22;39708;53.210;6.948;2022-07-03T15:53:19;18.20;99.90
53800;DHT22;39708;53.210;6.948;2022-07-03T15:55:48;18.40;99.90
53800;DHT22;39708;53.210;6.948;2022-07-03T15:58:18;18.40;99.90
53800;DHT22;39708;53.210;6.948;2022-07-03T16:00:48;18.30;99.90
53800;DHT22;39708;53.210;6.948;2022-07-03T16:03:49;18.40;99.90
53800;DHT22;39708;53.210;6.948;2022-07-03T16:06:17;18.40;99.90
53800;DHT22;39708;53.210;6.948;2022-07-03T16:08:44;18.30;99.90
53800;DHT22;39708;53.210;6.948;2022-07-03T16:11:12;18.10;99.90
53800;DHT22;39708;53.210;6.948;2022-07-03T16:13:39;17.90;99.90
53800;DHT22;39708;53.210;6.948;2022-07-03T16:16:05;17.80;99.90
53800;DHT22;39708;53.210;6.948;2022-07-03T16:18:32;17.70;99.90
53800;DHT22;39708;53.210;6.948;2022-07-03T16:20:59;17.60;99.90
53800;DHT22;39708;53.210;6.948;2022-07-03T16:23:26;17.60;99.90
53800;DHT22;39708;53.210;6.948;2022-07-03T16:25:53;17.50;99.90
53800;DHT22;39708;53.210;6.948;2022-07-03T16:28:20;17.60;99.90
53800;DHT22;39708;53.210;6.948;2022-07-03T16:30:49;17.60;99.90
53800;DHT22;39708;53.210;6.948;2022-07-03T16:33:19;17.60;99.90
53800;DHT22;39708;53.210;6.948;2022-07-03T16:35:54;17.60;99.90
53800;DHT22;39708;53.210;6.948;2022-07-03T16:38:26;17.60;99.90
53800;DHT22;39708;53.210;6.948;2022-07-03T16:40:58;17.70;99.90
53800;DHT22;39708;53.210;6.948;2022-07-03T16:43:31;17.70;99.90
53800;DHT22;39708;53.210;6.948;2022-07-03T16:46:01;17.70;99.90
53800;DHT22;39708;53.210;6.948;2022-07-03T16:48:29;17.80;99.90
53800;DHT22;39708;53.210;6.948;2022-07-03T16:50:59;17.70;99.90
53800;DHT22;39708;53.210;6.948;2022-07-03T16:53:26;17.70;99.90
53800;DHT22;39708;53.210;6.948;2022-07-03T16:55:52;17.70;99.90
53800;DHT22;39708;53.210;6.948;2022-07-03T16:58:19;17.70;99.90